Glenrock, Wyoming
Current Conditions -  °F | °C
As of 2:53 PM on Sunday 21 Dec 2014 (Local Time) from KDGW Reporting Station
Scattered Clouds Scattered Clouds  
Wind Chill: 37°   Ceiling: Unl
Heat Index: 44°   Visibility: 10mi
Dew Point: 29°   Wind: 14mph
Humidity: 55%   Direction: 310°NW
Pressure: 29.48"   Gusts: NA
Location:  42.86°N, 105.87°W
Report Text: KDGW 212153Z AUTO 31012KT 10SM SCT110 07/M02 A2948 RMK AO2 PK WND 29032/2111 SLP982 T00671017
Loading
Personal Weather Stations






























Interactive Weather Map New forecast layout! Learn more

10-Day Weather Forecast

Advertisements
Track Severe Weather on mobile